sensor_id;sensor_type;location;lat;lon;timestamp;temperature;humidity
19242;DHT22;9755;47.790;9.620;2022-08-25T00:01:38;16.20;99.90
19242;DHT22;9755;47.790;9.620;2022-08-25T00:04:09;16.20;99.90
19242;DHT22;9755;47.790;9.620;2022-08-25T00:06:39;16.10;99.90
19242;DHT22;9755;47.790;9.620;2022-08-25T00:09:07;16.10;99.90
19242;DHT22;9755;47.790;9.620;2022-08-25T00:11:37;16.00;99.90
19242;DHT22;9755;47.790;9.620;2022-08-25T00:14:09;15.90;99.90
19242;DHT22;9755;47.790;9.620;2022-08-25T00:16:36;15.90;99.90
19242;DHT22;9755;47.790;9.620;2022-08-25T00:19:07;16.00;99.90
19242;DHT22;9755;47.790;9.620;2022-08-25T00:21:35;16.00;99.90
19242;DHT22;9755;47.790;9.620;2022-08-25T00:24:04;16.10;99.90
19242;DHT22;9755;47.790;9.620;2022-08-25T00:26:31;16.00;99.90
19242;DHT22;9755;47.790;9.620;2022-08-25T00:28:58;16.10;99.90
19242;DHT22;9755;47.790;9.620;2022-08-25T00:31:25;16.10;99.90
19242;DHT22;9755;47.790;9.620;2022-08-25T00:33:52;16.10;99.90
19242;DHT22;9755;47.790;9.620;2022-08-25T00:36:20;16.00;99.90
19242;DHT22;9755;47.790;9.620;2022-08-25T00:38:47;15.90;99.90
19242;DHT22;9755;47.790;9.620;2022-08-25T00:41:18;15.90;99.90
19242;DHT22;9755;47.790;9.620;2022-08-25T00:43:49;15.90;99.90
19242;DHT22;9755;47.790;9.620;2022-08-25T00:46:19;15.90;99.90
19242;DHT22;9755;47.790;9.620;2022-08-25T00:48:50;15.90;99.90
19242;DHT22;9755;47.790;9.620;2022-08-25T00:51:22;15.80;99.90
19242;DHT22;9755;47.790;9.620;2022-08-25T00:53:50;15.80;99.90
19242;DHT22;9755;47.790;9.620;2022-08-25T00:56:19;15.70;99.90
19242;DHT22;9755;47.790;9.620;2022-08-25T00:58:46;15.70;99.90
19242;DHT22;9755;47.790;9.620;2022-08-25T01:01:13;15.70;99.90
19242;DHT22;9755;47.790;9.620;2022-08-25T01:03:40;15.70;99.90
19242;DHT22;9755;47.790;9.620;2022-08-25T01:06:08;15.60;99.90
19242;DHT22;9755;47.790;9.620;2022-08-25T01:08:36;15.60;99.90
19242;DHT22;9755;47.790;9.620;2022-08-25T01:11:06;15.60;99.90
19242;DHT22;9755;47.790;9.620;2022-08-25T01:13:39;15.60;99.90
19242;DHT22;9755;47.790;9.620;2022-08-25T01:16:07;15.60;99.90
19242;DHT22;9755;47.790;9.620;2022-08-25T01:18:47;15.60;99.90
19242;DHT22;9755;47.790;9.620;2022-08-25T01:21:17;15.60;99.90
19242;DHT22;9755;47.790;9.620;2022-08-25T01:23:45;15.60;99.90
19242;DHT22;9755;47.790;9.620;2022-08-25T01:26:15;15.60;99.90
19242;DHT22;9755;47.790;9.620;2022-08-25T01:28:44;15.50;99.90
19242;DHT22;9755;47.790;9.620;2022-08-25T01:31:25;15.50;99.90
19242;DHT22;9755;47.790;9.620;2022-08-25T01:33:53;15.50;99.90
19242;DHT22;9755;47.790;9.620;2022-08-25T01:36:23;15.40;99.90
19242;DHT22;9755;47.790;9.620;2022-08-25T01:38:51;15.40;99.90
19242;DHT22;9755;47.790;9.620;2022-08-25T01:41:24;15.30;99.90
19242;DHT22;9755;47.790;9.620;2022-08-25T01:43:52;15.30;99.90
19242;DHT22;9755;47.790;9.620;2022-08-25T01:46:20;15.40;99.90
19242;DHT22;9755;47.790;9.620;2022-08-25T01:48:47;15.40;99.90
19242;DHT22;9755;47.790;9.620;2022-08-25T01:51:15;15.40;99.90
19242;DHT22;9755;47.790;9.620;2022-08-25T01:53:44;15.30;99.90
19242;DHT22;9755;47.790;9.620;2022-08-25T01:56:14;15.30;99.90
19242;DHT22;9755;47.790;9.620;2022-08-25T01:58:44;15.30;99.90
19242;DHT22;9755;47.790;9.620;2022-08-25T02:01:14;15.30;99.90
19242;DHT22;9755;47.790;9.620;2022-08-25T02:03:46;15.30;99.90
19242;DHT22;9755;47.790;9.620;2022-08-25T02:06:15;15.30;99.90
19242;DHT22;9755;47.790;9.620;2022-08-25T02:08:44;15.20;99.90
19242;DHT22;9755;47.790;9.620;2022-08-25T02:11:12;15.20;99.90
19242;DHT22;9755;47.790;9.620;2022-08-25T02:13:39;15.20;99.90
19242;DHT22;9755;47.790;9.620;2022-08-25T02:16:08;15.10;99.90
19242;DHT22;9755;47.790;9.620;2022-08-25T02:18:35;15.00;99.90
19242;DHT22;9755;47.790;9.620;2022-08-25T02:21:03;15.10;99.90
19242;DHT22;9755;47.790;9.620;2022-08-25T02:23:30;15.10;99.90
19242;DHT22;9755;47.790;9.620;2022-08-25T02:25:58;15.20;99.90
19242;DHT22;9755;47.790;9.620;2022-08-25T02:28:25;15.10;99.90
19242;DHT22;9755;47.790;9.620;2022-08-25T02:30:52;15.10;99.90
19242;DHT22;9755;47.790;9.620;2022-08-25T02:33:19;15.10;99.90
19242;DHT22;9755;47.790;9.620;2022-08-25T02:35:47;15.10;99.90
19242;DHT22;9755;47.790;9.620;2022-08-25T02:38:14;15.10;99.90
19242;DHT22;9755;47.790;9.620;2022-08-25T02:40:41;15.10;99.90
19242;DHT22;9755;47.790;9.620;2022-08-25T02:43:09;15.10;99.90
19242;DHT22;9755;47.790;9.620;2022-08-25T02:45:36;15.00;99.90
19242;DHT22;9755;47.790;9.620;2022-08-25T02:48:03;15.00;99.90
19242;DHT22;9755;47.790;9.620;2022-08-25T02:50:31;15.00;99.90
19242;DHT22;9755;47.790;9.620;2022-08-25T02:52:58;15.00;99.90
19242;DHT22;9755;47.790;9.620;2022-08-25T02:55:25;15.00;99.90
19242;DHT22;9755;47.790;9.620;2022-08-25T02:57:52;14.90;99.90
19242;DHT22;9755;47.790;9.620;2022-08-25T03:00:21;14.90;99.90
19242;DHT22;9755;47.790;9.620;2022-08-25T03:02:48;14.80;99.90
19242;DHT22;9755;47.790;9.620;2022-08-25T03:05:15;14.80;99.90
19242;DHT22;9755;47.790;9.620;2022-08-25T03:07:42;14.80;99.90
19242;DHT22;9755;47.790;9.620;2022-08-25T03:10:11;14.70;99.90
19242;DHT22;9755;47.790;9.620;2022-08-25T03:12:39;14.70;99.90
19242;DHT22;9755;47.790;9.620;2022-08-25T03:15:08;14.80;99.90
19242;DHT22;9755;47.790;9.620;2022-08-25T03:17:36;14.70;99.90
19242;DHT22;9755;47.790;9.620;2022-08-25T03:20:04;14.70;99.90
19242;DHT22;9755;47.790;9.620;2022-08-25T03:22:32;14.70;99.90
19242;DHT22;9755;47.790;9.620;2022-08-25T03:25:00;14.70;99.90
19242;DHT22;9755;47.790;9.620;2022-08-25T03:27:41;14.60;99.90
19242;DHT22;9755;47.790;9.620;2022-08-25T03:30:10;14.60;99.90
19242;DHT22;9755;47.790;9.620;2022-08-25T03:32:39;14.60;99.90
19242;DHT22;9755;47.790;9.620;2022-08-25T03:35:06;14.50;99.90
19242;DHT22;9755;47.790;9.620;2022-08-25T03:37:34;14.60;99.90
19242;DHT22;9755;47.790;9.620;2022-08-25T03:40:02;14.50;99.90
19242;DHT22;9755;47.790;9.620;2022-08-25T03:42:30;14.50;99.90
19242;DHT22;9755;47.790;9.620;2022-08-25T03:44:57;14.60;99.90
19242;DHT22;9755;47.790;9.620;2022-08-25T03:47:25;14.50;99.90
19242;DHT22;9755;47.790;9.620;2022-08-25T03:49:55;14.60;99.90
19242;DHT22;9755;47.790;9.620;2022-08-25T03:52:22;14.50;99.90
19242;DHT22;9755;47.790;9.620;2022-08-25T03:54:49;14.50;99.90
19242;DHT22;9755;47.790;9.620;2022-08-25T03:57:16;14.40;99.90
19242;DHT22;9755;47.790;9.620;2022-08-25T03:59:45;14.40;99.90
19242;DHT22;9755;47.790;9.620;2022-08-25T04:02:12;14.40;99.90
19242;DHT22;9755;47.790;9.620;2022-08-25T04:04:39;14.30;99.90
19242;DHT22;9755;47.790;9.620;2022-08-25T04:07:08;14.30;99.90
19242;DHT22;9755;47.790;9.620;2022-08-25T04:09:35;14.20;99.90
19242;DHT22;9755;47.790;9.620;2022-08-25T04:12:02;14.10;99.90
19242;DHT22;9755;47.790;9.620;2022-08-25T04:14:30;14.10;99.90
19242;DHT22;9755;47.790;9.620;2022-08-25T04:16:57;14.20;99.90
19242;DHT22;9755;47.790;9.620;2022-08-25T04:19:24;14.20;99.90
19242;DHT22;9755;47.790;9.620;2022-08-25T04:21:51;14.20;99.90
19242;DHT22;9755;47.790;9.620;2022-08-25T04:24:21;14.20;99.90
19242;DHT22;9755;47.790;9.620;2022-08-25T04:26:49;14.20;99.90
19242;DHT22;9755;47.790;9.620;2022-08-25T04:29:20;14.20;99.90
19242;DHT22;9755;47.790;9.620;2022-08-25T04:31:48;14.20;99.90
19242;DHT22;9755;47.790;9.620;2022-08-25T04:34:16;14.20;99.90
19242;DHT22;9755;47.790;9.620;2022-08-25T04:36:43;14.20;99.90
19242;DHT22;9755;47.790;9.620;2022-08-25T04:39:10;14.10;99.90
19242;DHT22;9755;47.790;9.620;2022-08-25T04:41:39;14.10;99.90
19242;DHT22;9755;47.790;9.620;2022-08-25T04:44:06;14.00;99.90
19242;DHT22;9755;47.790;9.620;2022-08-25T04:46:33;14.00;99.90
19242;DHT22;9755;47.790;9.620;2022-08-25T04:49:01;14.00;99.90
19242;DHT22;9755;47.790;9.620;2022-08-25T04:51:31;14.10;99.90
19242;DHT22;9755;47.790;9.620;2022-08-25T04:53:59;14.10;99.90
19242;DHT22;9755;47.790;9.620;2022-08-25T04:56:27;14.20;99.90
19242;DHT22;9755;47.790;9.620;2022-08-25T04:58:56;14.20;99.90
19242;DHT22;9755;47.790;9.620;2022-08-25T05:01:24;14.20;99.90
19242;DHT22;9755;47.790;9.620;2022-08-25T05:03:53;14.10;99.90
19242;DHT22;9755;47.790;9.620;2022-08-25T05:06:21;14.20;99.90
19242;DHT22;9755;47.790;9.620;2022-08-25T05:08:48;14.20;99.90
19242;DHT22;9755;47.790;9.620;2022-08-25T05:11:16;14.20;99.90
19242;DHT22;9755;47.790;9.620;2022-08-25T05:13:45;14.20;99.90
19242;DHT22;9755;47.790;9.620;2022-08-25T05:16:14;14.30;99.90
19242;DHT22;9755;47.790;9.620;2022-08-25T05:18:41;14.40;99.90
19242;DHT22;9755;47.790;9.620;2022-08-25T05:21:12;14.90;99.90
19242;DHT22;9755;47.790;9.620;2022-08-25T05:23:40;15.50;99.90
19242;DHT22;9755;47.790;9.620;2022-08-25T05:26:09;16.10;99.90
19242;DHT22;9755;47.790;9.620;2022-08-25T05:28:37;16.50;99.90
19242;DHT22;9755;47.790;9.620;2022-08-25T05:31:05;16.80;1.00
19242;DHT22;9755;47.790;9.620;2022-08-25T05:33:35;17.10;1.00
19242;DHT22;9755;47.790;9.620;2022-08-25T05:36:03;17.10;1.00
19242;DHT22;9755;47.790;9.620;2022-08-25T05:38:30;17.40;99.90
19242;DHT22;9755;47.790;9.620;2022-08-25T05:40:58;17.70;1.00
19242;DHT22;9755;47.790;9.620;2022-08-25T05:43:25;17.90;99.90
19242;DHT22;9755;47.790;9.620;2022-08-25T05:45:53;18.20;1.00
19242;DHT22;9755;47.790;9.620;2022-08-25T05:48:20;18.40;45.00
19242;DHT22;9755;47.790;9.620;2022-08-25T05:50:52;18.80;99.90
19242;DHT22;9755;47.790;9.620;2022-08-25T05:53:20;19.30;1.00
19242;DHT22;9755;47.790;9.620;2022-08-25T05:55:48;20.10;1.00
19242;DHT22;9755;47.790;9.620;2022-08-25T05:58:16;20.90;1.00
19242;DHT22;9755;47.790;9.620;2022-08-25T06:00:43;21.80;99.90
19242;DHT22;9755;47.790;9.620;2022-08-25T06:03:11;22.10;1.00
19242;DHT22;9755;47.790;9.620;2022-08-25T06:05:37;22.00;1.00
19242;DHT22;9755;47.790;9.620;2022-08-25T06:08:05;22.10;1.00
19242;DHT22;9755;47.790;9.620;2022-08-25T06:10:33;22.20;1.00
19242;DHT22;9755;47.790;9.620;2022-08-25T06:13:00;21.50;1.00
19242;DHT22;9755;47.790;9.620;2022-08-25T06:15:27;22.20;1.00
19242;DHT22;9755;47.790;9.620;2022-08-25T06:17:54;23.10;1.00
19242;DHT22;9755;47.790;9.620;2022-08-25T06:20:25;23.60;1.00
19242;DHT22;9755;47.790;9.620;2022-08-25T06:22:53;23.70;1.00
19242;DHT22;9755;47.790;9.620;2022-08-25T06:25:23;23.80;1.00
19242;DHT22;9755;47.790;9.620;2022-08-25T06:27:52;24.20;1.00
19242;DHT22;9755;47.790;9.620;2022-08-25T06:30:20;24.70;99.90
19242;DHT22;9755;47.790;9.620;2022-08-25T06:32:48;25.50;27.30
19242;DHT22;9755;47.790;9.620;2022-08-25T06:35:17;25.90;99.90
19242;DHT22;9755;47.790;9.620;2022-08-25T06:37:45;25.90;1.00
19242;DHT22;9755;47.790;9.620;2022-08-25T06:40:13;26.10;1.00
19242;DHT22;9755;47.790;9.620;2022-08-25T06:42:46;27.30;1.00
19242;DHT22;9755;47.790;9.620;2022-08-25T06:45:13;28.30;99.90
19242;DHT22;9755;47.790;9.620;2022-08-25T06:47:40;28.50;1.00
19242;DHT22;9755;47.790;9.620;2022-08-25T06:50:08;28.70;99.90
19242;DHT22;9755;47.790;9.620;2022-08-25T06:52:36;29.50;99.90
19242;DHT22;9755;47.790;9.620;2022-08-25T06:55:03;30.10;99.90
19242;DHT22;9755;47.790;9.620;2022-08-25T06:57:31;30.50;1.00
19242;DHT22;9755;47.790;9.620;2022-08-25T07:00:03;30.80;1.00
19242;DHT22;9755;47.790;9.620;2022-08-25T07:02:30;31.00;1.00
19242;DHT22;9755;47.790;9.620;2022-08-25T07:04:58;30.20;1.00
19242;DHT22;9755;47.790;9.620;2022-08-25T07:07:25;29.80;1.00
19242;DHT22;9755;47.790;9.620;2022-08-25T07:09:52;30.40;99.90
19242;DHT22;9755;47.790;9.620;2022-08-25T07:12:20;30.50;1.00
19242;DHT22;9755;47.790;9.620;2022-08-25T07:14:48;31.00;1.00
19242;DHT22;9755;47.790;9.620;2022-08-25T07:17:17;30.70;1.00
19242;DHT22;9755;47.790;9.620;2022-08-25T07:19:45;31.10;1.00
19242;DHT22;9755;47.790;9.620;2022-08-25T07:22:12;30.90;1.00
19242;DHT22;9755;47.790;9.620;2022-08-25T07:24:39;30.10;1.00
19242;DHT22;9755;47.790;9.620;2022-08-25T07:27:06;29.00;1.00
19242;DHT22;9755;47.790;9.620;2022-08-25T07:29:33;30.60;1.00
19242;DHT22;9755;47.790;9.620;2022-08-25T07:32:04;32.00;1.00
19242;DHT22;9755;47.790;9.620;2022-08-25T07:34:32;32.60;99.90
19242;DHT22;9755;47.790;9.620;2022-08-25T07:37:18;31.80;99.90
19242;DHT22;9755;47.790;9.620;2022-08-25T07:39:45;31.00;99.90
19242;DHT22;9755;47.790;9.620;2022-08-25T07:42:12;30.40;99.90
19242;DHT22;9755;47.790;9.620;2022-08-25T07:44:40;31.90;99.90
19242;DHT22;9755;47.790;9.620;2022-08-25T07:47:07;32.60;99.90
19242;DHT22;9755;47.790;9.620;2022-08-25T07:49:35;33.40;99.90
19242;DHT22;9755;47.790;9.620;2022-08-25T07:52:03;33.90;99.90
19242;DHT22;9755;47.790;9.620;2022-08-25T07:56:57;34.30;1.00
19242;DHT22;9755;47.790;9.620;2022-08-25T07:59:24;34.50;99.90
19242;DHT22;9755;47.790;9.620;2022-08-25T08:01:51;34.40;1.00
19242;DHT22;9755;47.790;9.620;2022-08-25T08:04:18;34.90;1.00
19242;DHT22;9755;47.790;9.620;2022-08-25T08:06:47;34.70;1.00
19242;DHT22;9755;47.790;9.620;2022-08-25T08:09:14;32.80;1.00
19242;DHT22;9755;47.790;9.620;2022-08-25T08:11:41;33.90;1.00
19242;DHT22;9755;47.790;9.620;2022-08-25T08:16:38;34.50;99.90
19242;DHT22;9755;47.790;9.620;2022-08-25T08:19:05;35.80;1.00
19242;DHT22;9755;47.790;9.620;2022-08-25T08:21:33;35.60;99.90
19242;DHT22;9755;47.790;9.620;2022-08-25T08:24:03;33.20;99.90
19242;DHT22;9755;47.790;9.620;2022-08-25T08:26:30;32.30;99.90
19242;DHT22;9755;47.790;9.620;2022-08-25T08:28:58;33.50;99.90
19242;DHT22;9755;47.790;9.620;2022-08-25T08:31:26;34.70;99.90
19242;DHT22;9755;47.790;9.620;2022-08-25T08:33:54;35.50;99.90
19242;DHT22;9755;47.790;9.620;2022-08-25T08:36:23;35.90;99.90
19242;DHT22;9755;47.790;9.620;2022-08-25T08:38:52;36.50;99.90
19242;DHT22;9755;47.790;9.620;2022-08-25T08:41:58;37.10;1.00
19242;DHT22;9755;47.790;9.620;2022-08-25T08:44:53;37.10;99.90
19242;DHT22;9755;47.790;9.620;2022-08-25T08:47:42;37.10;1.00
19242;DHT22;9755;47.790;9.620;2022-08-25T08:50:22;38.10;1.00
19242;DHT22;9755;47.790;9.620;2022-08-25T08:52:55;37.70;1.00
19242;DHT22;9755;47.790;9.620;2022-08-25T08:55:27;37.70;1.00
19242;DHT22;9755;47.790;9.620;2022-08-25T08:57:58;38.30;1.00
19242;DHT22;9755;47.790;9.620;2022-08-25T09:00:27;38.40;1.00
19242;DHT22;9755;47.790;9.620;2022-08-25T09:03:01;38.90;1.00
19242;DHT22;9755;47.790;9.620;2022-08-25T09:05:34;38.50;1.00
19242;DHT22;9755;47.790;9.620;2022-08-25T09:08:05;38.60;1.00
19242;DHT22;9755;47.790;9.620;2022-08-25T09:10:39;38.90;1.00
19242;DHT22;9755;47.790;9.620;2022-08-25T09:13:18;38.80;1.00
19242;DHT22;9755;47.790;9.620;2022-08-25T09:15:53;37.40;1.00
19242;DHT22;9755;47.790;9.620;2022-08-25T09:18:50;35.90;1.00
19242;DHT22;9755;47.790;9.620;2022-08-25T09:21:28;36.60;1.00
19242;DHT22;9755;47.790;9.620;2022-08-25T09:24:16;37.90;1.00
19242;DHT22;9755;47.790;9.620;2022-08-25T09:26:49;38.60;1.00
19242;DHT22;9755;47.790;9.620;2022-08-25T09:29:22;39.10;1.00
19242;DHT22;9755;47.790;9.620;2022-08-25T09:31:51;38.80;1.00
19242;DHT22;9755;47.790;9.620;2022-08-25T09:34:23;39.90;1.00
19242;DHT22;9755;47.790;9.620;2022-08-25T09:36:54;39.60;1.00
19242;DHT22;9755;47.790;9.620;2022-08-25T09:39:21;39.60;1.00
19242;DHT22;9755;47.790;9.620;2022-08-25T09:41:51;40.20;1.00
19242;DHT22;9755;47.790;9.620;2022-08-25T09:44:22;39.10;1.00
19242;DHT22;9755;47.790;9.620;2022-08-25T09:46:59;39.90;1.00
19242;DHT22;9755;47.790;9.620;2022-08-25T09:49:39;40.20;1.00
19242;DHT22;9755;47.790;9.620;2022-08-25T09:52:32;40.10;1.00
19242;DHT22;9755;47.790;9.620;2022-08-25T09:55:22;39.80;1.00
19242;DHT22;9755;47.790;9.620;2022-08-25T09:57:53;39.50;1.00
19242;DHT22;9755;47.790;9.620;2022-08-25T10:00:26;38.40;1.00
19242;DHT22;9755;47.790;9.620;2022-08-25T10:03:07;39.10;1.00
19242;DHT22;9755;47.790;9.620;2022-08-25T10:05:40;39.70;1.00
19242;DHT22;9755;47.790;9.620;2022-08-25T10:08:26;40.60;1.00
19242;DHT22;9755;47.790;9.620;2022-08-25T10:10:57;41.10;1.00
19242;DHT22;9755;47.790;9.620;2022-08-25T10:13:38;40.50;1.00
19242;DHT22;9755;47.790;9.620;2022-08-25T10:16:11;40.20;1.00
19242;DHT22;9755;47.790;9.620;2022-08-25T10:18:38;40.10;1.00
19242;DHT22;9755;47.790;9.620;2022-08-25T10:21:08;40.20;1.00
19242;DHT22;9755;47.790;9.620;2022-08-25T10:23:40;38.90;1.00
19242;DHT22;9755;47.790;9.620;2022-08-25T10:26:13;39.60;1.00
19242;DHT22;9755;47.790;9.620;2022-08-25T10:28:50;40.10;1.00
19242;DHT22;9755;47.790;9.620;2022-08-25T10:31:24;40.40;1.00
19242;DHT22;9755;47.790;9.620;2022-08-25T10:34:03;40.20;1.00
19242;DHT22;9755;47.790;9.620;2022-08-25T10:36:44;39.30;99.90
19242;DHT22;9755;47.790;9.620;2022-08-25T10:39:22;39.70;1.00
19242;DHT22;9755;47.790;9.620;2022-08-25T10:41:59;39.70;99.90
19242;DHT22;9755;47.790;9.620;2022-08-25T10:44:33;36.40;1.00
19242;DHT22;9755;47.790;9.620;2022-08-25T10:47:43;37.60;1.00
19242;DHT22;9755;47.790;9.620;2022-08-25T10:50:20;38.80;99.90
19242;DHT22;9755;47.790;9.620;2022-08-25T10:53:02;39.10;99.90
19242;DHT22;9755;47.790;9.620;2022-08-25T10:55:39;39.60;1.00
19242;DHT22;9755;47.790;9.620;2022-08-25T10:58:15;38.90;1.00
19242;DHT22;9755;47.790;9.620;2022-08-25T11:00:54;38.70;1.00
19242;DHT22;9755;47.790;9.620;2022-08-25T11:03:43;39.20;1.00
19242;DHT22;9755;47.790;9.620;2022-08-25T11:06:17;39.80;1.00
19242;DHT22;9755;47.790;9.620;2022-08-25T11:08:49;39.50;1.00
19242;DHT22;9755;47.790;9.620;2022-08-25T11:11:25;39.60;1.00
19242;DHT22;9755;47.790;9.620;2022-08-25T11:13:56;39.30;99.90
19242;DHT22;9755;47.790;9.620;2022-08-25T11:16:34;39.20;1.00
19242;DHT22;9755;47.790;9.620;2022-08-25T11:19:08;38.20;1.00
19242;DHT22;9755;47.790;9.620;2022-08-25T11:21:46;36.80;1.00
19242;DHT22;9755;47.790;9.620;2022-08-25T11:24:32;36.60;1.00
19242;DHT22;9755;47.790;9.620;2022-08-25T11:27:04;37.00;1.00
19242;DHT22;9755;47.790;9.620;2022-08-25T11:29:34;38.10;99.90
19242;DHT22;9755;47.790;9.620;2022-08-25T11:32:04;38.50;1.00
19242;DHT22;9755;47.790;9.620;2022-08-25T11:34:35;38.80;99.90
19242;DHT22;9755;47.790;9.620;2022-08-25T11:37:06;37.70;1.00
19242;DHT22;9755;47.790;9.620;2022-08-25T11:39:54;37.60;1.00
19242;DHT22;9755;47.790;9.620;2022-08-25T11:42:32;37.70;1.00
19242;DHT22;9755;47.790;9.620;2022-08-25T11:45:09;37.70;1.00
19242;DHT22;9755;47.790;9.620;2022-08-25T11:48:02;37.80;1.00
19242;DHT22;9755;47.790;9.620;2022-08-25T11:50:35;36.80;1.00
19242;DHT22;9755;47.790;9.620;2022-08-25T11:53:18;36.50;99.90
19242;DHT22;9755;47.790;9.620;2022-08-25T11:55:49;36.20;1.00
19242;DHT22;9755;47.790;9.620;2022-08-25T11:58:38;37.00;1.00
19242;DHT22;9755;47.790;9.620;2022-08-25T12:01:09;37.40;1.00
19242;DHT22;9755;47.790;9.620;2022-08-25T12:03:53;37.60;1.00
19242;DHT22;9755;47.790;9.620;2022-08-25T12:10:16;37.80;1.00
19242;DHT22;9755;47.790;9.620;2022-08-25T12:13:00;37.70;1.00
19242;DHT22;9755;47.790;9.620;2022-08-25T12:15:33;37.10;1.00
19242;DHT22;9755;47.790;9.620;2022-08-25T12:18:39;36.10;1.00
19242;DHT22;9755;47.790;9.620;2022-08-25T12:21:15;36.00;1.00
19242;DHT22;9755;47.790;9.620;2022-08-25T12:24:12;35.90;1.00
19242;DHT22;9755;47.790;9.620;2022-08-25T12:26:50;34.30;1.00
19242;DHT22;9755;47.790;9.620;2022-08-25T12:29:29;33.40;1.00
19242;DHT22;9755;47.790;9.620;2022-08-25T12:32:05;34.40;1.00
19242;DHT22;9755;47.790;9.620;2022-08-25T12:35:08;35.00;1.00
19242;DHT22;9755;47.790;9.620;2022-08-25T12:37:54;35.10;1.00
19242;DHT22;9755;47.790;9.620;2022-08-25T12:40:26;35.50;1.00
19242;DHT22;9755;47.790;9.620;2022-08-25T12:43:04;35.90;1.00
19242;DHT22;9755;47.790;9.620;2022-08-25T12:45:36;36.10;1.00
19242;DHT22;9755;47.790;9.620;2022-08-25T12:51:23;34.70;1.00
19242;DHT22;9755;47.790;9.620;2022-08-25T12:53:53;34.80;1.00
19242;DHT22;9755;47.790;9.620;2022-08-25T12:56:41;35.20;99.90
19242;DHT22;9755;47.790;9.620;2022-08-25T12:59:14;34.00;1.00
19242;DHT22;9755;47.790;9.620;2022-08-25T13:05:01;35.40;1.00
19242;DHT22;9755;47.790;9.620;2022-08-25T13:07:41;35.00;1.00
19242;DHT22;9755;47.790;9.620;2022-08-25T13:10:37;34.60;1.00
19242;DHT22;9755;47.790;9.620;2022-08-25T13:13:14;34.70;1.00
19242;DHT22;9755;47.790;9.620;2022-08-25T13:15:45;35.50;1.00
19242;DHT22;9755;47.790;9.620;2022-08-25T13:18:21;36.00;1.00
19242;DHT22;9755;47.790;9.620;2022-08-25T13:20:53;36.30;1.00
19242;DHT22;9755;47.790;9.620;2022-08-25T13:23:25;36.00;1.00
19242;DHT22;9755;47.790;9.620;2022-08-25T13:25:55;35.20;1.00
19242;DHT22;9755;47.790;9.620;2022-08-25T13:28:27;32.50;1.00
19242;DHT22;9755;47.790;9.620;2022-08-25T13:31:06;33.00;1.00
19242;DHT22;9755;47.790;9.620;2022-08-25T13:33:34;33.90;1.00
19242;DHT22;9755;47.790;9.620;2022-08-25T13:36:03;34.30;1.00
19242;DHT22;9755;47.790;9.620;2022-08-25T13:38:48;34.60;1.00
19242;DHT22;9755;47.790;9.620;2022-08-25T13:41:18;34.60;1.00
19242;DHT22;9755;47.790;9.620;2022-08-25T13:43:47;34.30;99.90
19242;DHT22;9755;47.790;9.620;2022-08-25T13:46:18;34.00;99.90
19242;DHT22;9755;47.790;9.620;2022-08-25T13:48:46;33.60;99.90
19242;DHT22;9755;47.790;9.620;2022-08-25T13:51:23;34.10;99.90
19242;DHT22;9755;47.790;9.620;2022-08-25T13:53:54;34.40;99.90
19242;DHT22;9755;47.790;9.620;2022-08-25T13:56:24;34.50;99.90
19242;DHT22;9755;47.790;9.620;2022-08-25T13:58:54;34.30;1.00
19242;DHT22;9755;47.790;9.620;2022-08-25T14:01:25;33.90;1.00
19242;DHT22;9755;47.790;9.620;2022-08-25T14:03:54;33.50;1.00
19242;DHT22;9755;47.790;9.620;2022-08-25T14:06:24;33.60;99.90
19242;DHT22;9755;47.790;9.620;2022-08-25T14:09:11;33.40;99.90
19242;DHT22;9755;47.790;9.620;2022-08-25T14:11:44;33.80;99.90
19242;DHT22;9755;47.790;9.620;2022-08-25T14:14:29;33.80;99.90
19242;DHT22;9755;47.790;9.620;2022-08-25T14:17:03;33.80;1.00
19242;DHT22;9755;47.790;9.620;2022-08-25T14:19:32;33.30;1.00
19242;DHT22;9755;47.790;9.620;2022-08-25T14:22:00;33.20;1.00
19242;DHT22;9755;47.790;9.620;2022-08-25T14:24:32;33.50;1.00
19242;DHT22;9755;47.790;9.620;2022-08-25T14:27:00;33.70;1.00
19242;DHT22;9755;47.790;9.620;2022-08-25T14:29:29;33.70;1.00
19242;DHT22;9755;47.790;9.620;2022-08-25T14:31:57;33.50;1.00
19242;DHT22;9755;47.790;9.620;2022-08-25T14:34:27;33.50;1.00
19242;DHT22;9755;47.790;9.620;2022-08-25T14:36:55;33.50;1.00
19242;DHT22;9755;47.790;9.620;2022-08-25T14:39:24;33.70;1.00
19242;DHT22;9755;47.790;9.620;2022-08-25T14:41:51;33.40;1.00
19242;DHT22;9755;47.790;9.620;2022-08-25T14:44:19;33.50;1.00
19242;DHT22;9755;47.790;9.620;2022-08-25T14:46:50;33.40;1.00
19242;DHT22;9755;47.790;9.620;2022-08-25T14:49:20;32.30;1.00
19242;DHT22;9755;47.790;9.620;2022-08-25T14:51:48;31.50;1.00
19242;DHT22;9755;47.790;9.620;2022-08-25T14:54:16;31.20;1.00
19242;DHT22;9755;47.790;9.620;2022-08-25T14:56:44;31.70;1.00
19242;DHT22;9755;47.790;9.620;2022-08-25T14:59:12;31.80;1.00
19242;DHT22;9755;47.790;9.620;2022-08-25T15:01:40;32.30;1.00
19242;DHT22;9755;47.790;9.620;2022-08-25T15:04:10;32.60;1.00
19242;DHT22;9755;47.790;9.620;2022-08-25T15:06:39;33.00;1.00
19242;DHT22;9755;47.790;9.620;2022-08-25T15:09:09;33.00;1.00
19242;DHT22;9755;47.790;9.620;2022-08-25T15:11:38;32.90;1.00
19242;DHT22;9755;47.790;9.620;2022-08-25T15:14:06;33.10;1.00
19242;DHT22;9755;47.790;9.620;2022-08-25T15:16:36;33.20;1.00
19242;DHT22;9755;47.790;9.620;2022-08-25T15:19:05;33.10;1.00
19242;DHT22;9755;47.790;9.620;2022-08-25T15:21:34;33.10;1.00
19242;DHT22;9755;47.790;9.620;2022-08-25T15:24:02;32.50;1.00
19242;DHT22;9755;47.790;9.620;2022-08-25T15:26:29;32.20;1.00
19242;DHT22;9755;47.790;9.620;2022-08-25T15:28:56;32.40;1.00
19242;DHT22;9755;47.790;9.620;2022-08-25T15:31:23;32.70;1.00
19242;DHT22;9755;47.790;9.620;2022-08-25T15:33:51;32.00;1.00
19242;DHT22;9755;47.790;9.620;2022-08-25T15:36:21;32.40;1.00
19242;DHT22;9755;47.790;9.620;2022-08-25T15:38:51;32.40;1.00
19242;DHT22;9755;47.790;9.620;2022-08-25T15:41:19;31.80;1.00
19242;DHT22;9755;47.790;9.620;2022-08-25T15:43:47;31.90;1.00
19242;DHT22;9755;47.790;9.620;2022-08-25T15:46:18;32.10;1.00
19242;DHT22;9755;47.790;9.620;2022-08-25T15:48:46;32.30;1.00
19242;DHT22;9755;47.790;9.620;2022-08-25T15:51:15;32.10;1.00
19242;DHT22;9755;47.790;9.620;2022-08-25T15:53:43;32.20;1.00
19242;DHT22;9755;47.790;9.620;2022-08-25T15:56:12;32.40;1.00
19242;DHT22;9755;47.790;9.620;2022-08-25T15:58:42;32.20;1.00
19242;DHT22;9755;47.790;9.620;2022-08-25T16:01:11;31.90;1.00
19242;DHT22;9755;47.790;9.620;2022-08-25T16:03:39;32.10;1.00
19242;DHT22;9755;47.790;9.620;2022-08-25T16:06:06;31.60;1.00
19242;DHT22;9755;47.790;9.620;2022-08-25T16:08:33;31.30;1.00
19242;DHT22;9755;47.790;9.620;2022-08-25T16:11:01;30.90;1.00
19242;DHT22;9755;47.790;9.620;2022-08-25T16:13:30;31.00;1.00
19242;DHT22;9755;47.790;9.620;2022-08-25T16:15:58;31.10;1.00
19242;DHT22;9755;47.790;9.620;2022-08-25T16:18:25;31.40;1.00
19242;DHT22;9755;47.790;9.620;2022-08-25T16:20:53;31.50;1.00
19242;DHT22;9755;47.790;9.620;2022-08-25T16:23:20;31.30;1.00
19242;DHT22;9755;47.790;9.620;2022-08-25T16:25:47;31.20;1.00
19242;DHT22;9755;47.790;9.620;2022-08-25T16:28:16;31.20;1.00
19242;DHT22;9755;47.790;9.620;2022-08-25T16:30:47;30.90;1.00
19242;DHT22;9755;47.790;9.620;2022-08-25T16:33:15;30.50;1.00
19242;DHT22;9755;47.790;9.620;2022-08-25T16:35:42;30.30;1.00